Time;durP1;ratioP1;P1;durP2;ratioP2;P2;SDS_P1;SDS_P2;PMS_P1;PMS_P2;Temp;Humidity;BMP_temperature;BMP_pressure;BME280_temperature;BME280_humidity;BME280_pressure;Samples;Min_cycle;Max_cycle;Signal;HPM_P1;HPM_P2
2022/08/15 00:01:36;;;;;;;8.70;7.53;;;23.70;99.80;;;;;;5026873;28;20056;-80
2022/08/15 00:04:06;;;;;;;8.30;7.60;;;23.70;99.90;;;;;;5076062;28;20457;-80
2022/08/15 00:06:40;;;;;;;7.78;7.05;;;23.60;99.40;;;;;;5076881;28;20127;-79
2022/08/15 00:09:13;;;;;;;7.97;7.18;;;23.60;99.20;;;;;;5076182;28;20052;-80
2022/08/15 00:11:43;;;;;;;8.57;7.32;;;23.50;99.00;;;;;;5077225;28;20040;-79
2022/08/15 00:14:14;;;;;;;8.55;7.75;;;23.70;99.80;;;;;;5076393;28;20050;-80
2022/08/15 00:16:41;;;;;;;8.35;7.65;;;23.60;99.90;;;;;;5076138;28;20053;-80
2022/08/15 00:19:31;;;;;;;8.27;7.47;;;23.60;99.90;;;;;;5076035;28;20047;-80
2022/08/15 00:22:04;;;;;;;8.80;8.00;;;23.40;99.90;;;;;;5076642;28;20508;-80
2022/08/15 00:24:33;;;;;;;9.45;8.55;;;23.40;99.90;;;;;;5076248;28;20514;-79
2022/08/15 00:27:02;;;;;;;9.05;8.25;;;23.50;99.90;;;;;;5075538;28;20040;-79
2022/08/15 00:29:29;;;;;;;8.63;7.80;;;23.30;99.90;;;;;;5075781;28;20055;-80
2022/08/15 00:31:56;;;;;;;8.75;7.80;;;23.30;99.90;;;;;;5076718;28;20036;-79
2022/08/15 00:34:22;;;;;;;8.63;7.82;;;23.30;99.90;;;;;;5075693;28;20559;-79
2022/08/15 00:36:48;;;;;;;9.30;8.50;;;23.40;99.90;;;;;;5075945;28;20059;-80
2022/08/15 00:39:15;;;;;;;10.25;8.32;;;23.40;99.90;;;;;;5075635;28;20092;-79
2022/08/15 00:41:42;;;;;;;8.27;7.53;;;23.40;99.90;;;;;;5058805;28;20054;-80
2022/08/15 00:44:20;;;;;;;8.68;7.88;;;23.30;99.90;;;;;;5075569;28;20052;-80
2022/08/15 00:47:08;;;;;;;8.75;7.85;;;23.20;99.90;;;;;;5075591;28;20086;-80
2022/08/15 00:49:35;;;;;;;8.90;8.10;;;23.20;99.90;;;;;;5077100;28;20051;-80
2022/08/15 00:52:06;;;;;;;9.48;8.45;;;23.10;99.90;;;;;;5075482;28;20051;-80
2022/08/15 00:54:44;;;;;;;8.55;7.63;;;23.10;99.90;;;;;;5075396;28;20527;-79
2022/08/15 00:57:24;;;;;;;9.65;8.60;;;23.10;99.90;;;;;;5059035;28;20047;-79
2022/08/15 00:59:59;;;;;;;9.63;8.75;;;23.00;99.90;;;;;;5076276;28;20048;-80
2022/08/15 01:02:32;;;;;;;9.40;8.50;;;23.00;99.90;;;;;;5077008;28;20086;-79
2022/08/15 01:04:58;;;;;;;10.25;9.35;;;23.00;99.90;;;;;;5075091;28;20407;-79
2022/08/15 01:07:24;;;;;;;9.98;8.50;;;22.90;99.90;;;;;;5074900;28;20059;-79
2022/08/15 01:09:51;;;;;;;9.57;8.63;;;22.90;99.90;;;;;;5075081;28;20481;-80
2022/08/15 01:12:24;;;;;;;10.13;8.90;;;22.90;99.90;;;;;;5076016;28;20044;-80
2022/08/15 01:14:58;;;;;;;10.15;9.18;;;22.90;99.90;;;;;;5075939;28;20075;-79
2022/08/15 01:17:27;;;;;;;10.50;9.50;;;22.80;99.90;;;;;;5075787;28;20427;-80
2022/08/15 01:20:03;;;;;;;10.88;9.23;;;22.90;99.90;;;;;;5076705;28;20094;-79
2022/08/15 01:22:54;;;;;;;10.57;9.55;;;22.80;99.90;;;;;;5058888;28;20376;-80
2022/08/15 01:25:25;;;;;;;9.57;8.57;;;22.70;99.90;;;;;;5052237;28;20481;-79
2022/08/15 01:28:01;;;;;;;10.95;9.85;;;22.80;99.90;;;;;;5074969;28;20041;-79
2022/08/15 01:30:58;;;;;;;10.18;9.10;;;22.70;99.90;;;;;;5076263;28;20123;-79
2022/08/15 01:33:26;;;;;;;9.25;8.32;;;22.60;99.90;;;;;;5072187;28;20118;-79
2022/08/15 01:35:54;;;;;;;10.38;9.38;;;22.60;99.90;;;;;;5076082;28;20083;-80
2022/08/15 01:38:26;;;;;;;10.88;9.75;;;22.60;99.90;;;;;;5057779;28;20056;-80
2022/08/15 01:41:06;;;;;;;11.02;9.93;;;22.60;99.90;;;;;;5075308;28;20044;-80
2022/08/15 01:43:40;;;;;;;10.98;9.20;;;22.60;99.90;;;;;;5057961;28;20358;-80
2022/08/15 01:46:08;;;;;;;10.18;9.15;;;22.60;99.90;;;;;;5057833;28;20468;-79
2022/08/15 01:48:44;;;;;;;9.80;8.90;;;22.60;99.90;;;;;;5075285;28;20064;-79
2022/08/15 01:51:13;;;;;;;10.80;9.70;;;22.50;99.90;;;;;;5074644;28;20052;-79
2022/08/15 01:53:43;;;;;;;10.73;9.63;;;22.60;99.90;;;;;;5074073;28;20041;-79
2022/08/15 01:56:20;;;;;;;10.50;9.43;;;22.50;99.90;;;;;;5076006;28;20397;-79
2022/08/15 01:58:46;;;;;;;10.40;9.35;;;22.50;99.90;;;;;;5075947;28;20127;-79
2022/08/15 02:01:19;;;;;;;10.95;9.77;;;22.50;99.90;;;;;;5075063;28;20080;-80
2022/08/15 02:03:48;;;;;;;11.63;10.15;;;22.50;99.90;;;;;;5073666;28;20087;-78
2022/08/15 02:06:20;;;;;;;10.60;9.60;;;22.50;99.90;;;;;;5074106;28;20132;-80
2022/08/15 02:08:47;;;;;;;10.77;9.73;;;22.50;99.90;;;;;;5073691;28;20043;-79
2022/08/15 02:11:19;;;;;;;11.30;10.02;;;22.50;99.90;;;;;;5057172;28;20045;-78
2022/08/15 02:13:47;;;;;;;10.93;9.85;;;22.50;99.90;;;;;;5073806;28;20484;-80
2022/08/15 02:16:14;;;;;;;11.45;10.00;;;22.50;99.90;;;;;;5074799;28;20045;-80
2022/08/15 02:18:40;;;;;;;10.98;9.82;;;22.50;99.90;;;;;;5074684;28;20055;-79
2022/08/15 02:21:06;;;;;;;11.15;9.90;;;22.50;99.90;;;;;;5056698;28;20071;-79
2022/08/15 02:23:33;;;;;;;11.20;10.10;;;22.50;99.90;;;;;;5057803;28;20049;-78
2022/08/15 02:25:59;;;;;;;11.05;10.05;;;22.50;99.90;;;;;;5074480;28;20037;-79
2022/08/15 02:28:25;;;;;;;11.65;10.45;;;22.50;99.90;;;;;;5056969;28;20488;-79
2022/08/15 02:30:53;;;;;;;11.73;10.57;;;22.50;99.90;;;;;;5074630;28;20127;-79
2022/08/15 02:33:19;;;;;;;12.05;10.85;;;22.40;99.90;;;;;;5074534;28;20040;-79
2022/08/15 02:35:45;;;;;;;11.52;10.27;;;22.40;99.90;;;;;;5073556;28;20056;-79
2022/08/15 02:38:11;;;;;;;11.65;10.43;;;22.40;99.90;;;;;;5056776;28;20045;-79
2022/08/15 02:40:36;;;;;;;11.45;10.38;;;22.40;99.90;;;;;;5056603;28;20128;-80
2022/08/15 02:43:09;;;;;;;11.68;10.57;;;22.40;99.90;;;;;;5075062;28;20059;-79
2022/08/15 02:45:38;;;;;;;;;;;22.40;99.90;;;;;;5073539;28;20091;-79
2022/08/15 02:48:10;;;;;;;12.18;10.63;;;22.30;99.90;;;;;;5056765;28;19920;-79
2022/08/15 02:50:38;;;;;;;13.05;11.70;;;22.30;99.90;;;;;;5056460;28;20049;-79
2022/08/15 02:53:15;;;;;;;12.30;11.15;;;22.30;99.90;;;;;;5074072;28;20087;-79
2022/08/15 02:55:44;;;;;;;12.02;10.93;;;22.30;99.90;;;;;;5073885;28;20044;-79
2022/08/15 02:58:11;;;;;;;11.85;10.40;;;22.30;99.90;;;;;;5073010;28;20057;-79
2022/08/15 03:00:39;;;;;;;12.10;10.93;;;22.30;99.90;;;;;;5073200;28;20036;-80
2022/08/15 03:03:09;;;;;;;12.05;10.82;;;22.40;99.90;;;;;;5073598;28;20045;-79
2022/08/15 03:05:38;;;;;;;11.68;10.55;;;22.30;99.90;;;;;;5072382;28;20116;-80
2022/08/15 03:08:04;;;;;;;11.73;10.52;;;22.30;99.90;;;;;;5056421;28;20131;-80
2022/08/15 03:10:30;;;;;;;11.23;10.13;;;22.30;99.90;;;;;;5072792;28;20078;-79
2022/08/15 03:13:03;;;;;;;12.65;11.13;;;22.30;99.90;;;;;;5056913;28;20055;-79
2022/08/15 03:15:41;;;;;;;12.45;11.25;;;22.30;99.90;;;;;;5073922;28;20048;-79
2022/08/15 03:18:07;;;;;;;12.50;11.20;;;22.30;99.90;;;;;;5074512;28;20052;-80
2022/08/15 03:20:32;;;;;;;12.75;11.15;;;22.30;99.90;;;;;;5072033;28;20416;-79
2022/08/15 03:22:59;;;;;;;12.20;10.98;;;22.20;99.90;;;;;;5073094;28;20044;-80
2022/08/15 03:25:25;;;;;;;12.07;10.88;;;22.20;99.90;;;;;;5072404;28;20044;-79
2022/08/15 03:27:54;;;;;;;12.02;10.70;;;22.10;99.90;;;;;;5038866;28;20079;-79
2022/08/15 03:30:20;;;;;;;12.15;10.93;;;22.10;99.90;;;;;;5073150;28;20133;-79
2022/08/15 03:32:52;;;;;;;11.82;10.73;;;22.10;99.90;;;;;;5073556;28;20075;-79
2022/08/15 03:35:21;;;;;;;11.65;10.55;;;22.00;99.90;;;;;;5072379;28;20063;-79
2022/08/15 03:37:46;;;;;;;11.95;10.77;;;22.00;99.90;;;;;;5072774;28;20045;-79
2022/08/15 03:40:13;;;;;;;12.10;10.88;;;21.90;99.90;;;;;;5072374;28;20051;-79
2022/08/15 03:42:53;;;;;;;12.52;11.27;;;21.90;99.90;;;;;;5073428;28;20055;-78
2022/08/15 03:45:20;;;;;;;13.00;11.70;;;22.10;99.90;;;;;;5073705;28;20048;-78
2022/08/15 03:47:46;;;;;;;12.95;11.70;;;21.80;99.90;;;;;;5072390;28;20084;-79
2022/08/15 03:50:12;;;;;;;13.98;12.38;;;21.90;99.90;;;;;;5073657;28;20145;-78
2022/08/15 03:53:08;;;;;;;13.88;12.55;;;21.90;99.90;;;;;;5072380;28;20045;-79
2022/08/15 03:55:36;;;;;;;14.55;12.32;;;21.80;99.90;;;;;;5068477;28;20135;-79
2022/08/15 03:58:02;;;;;;;13.88;12.45;;;21.90;99.90;;;;;;5074136;28;20044;-79
2022/08/15 04:00:36;;;;;;;13.23;11.93;;;21.70;99.90;;;;;;5073536;28;20384;-79
2022/08/15 04:03:12;;;;;;;14.32;12.93;;;21.70;99.90;;;;;;5073369;28;20077;-79
2022/08/15 04:05:39;;;;;;;13.65;12.30;;;21.60;99.90;;;;;;5071687;28;20504;-79
2022/08/15 04:08:09;;;;;;;14.10;12.70;;;21.70;99.90;;;;;;5072171;28;20063;-79
2022/08/15 04:10:35;;;;;;;13.60;12.30;;;21.70;99.90;;;;;;5072158;28;20131;-79
2022/08/15 04:13:03;;;;;;;14.85;12.75;;;21.70;99.90;;;;;;5072127;28;20401;-78
2022/08/15 04:15:29;;;;;;;12.88;11.57;;;21.70;99.90;;;;;;5072088;28;20472;-79
2022/08/15 04:17:55;;;;;;;13.90;12.40;;;21.70;99.90;;;;;;5072688;28;20136;-79
2022/08/15 04:20:21;;;;;;;13.50;11.65;;;21.80;99.90;;;;;;5072041;28;20132;-78
2022/08/15 04:22:49;;;;;;;13.60;12.32;;;21.70;99.90;;;;;;5055654;28;20084;-78
2022/08/15 04:25:23;;;;;;;14.15;12.75;;;21.70;99.90;;;;;;5072517;28;20468;-79
2022/08/15 04:27:50;;;;;;;14.20;12.75;;;21.70;99.90;;;;;;5072907;28;20045;-79
2022/08/15 04:30:16;;;;;;;13.05;11.75;;;21.80;99.90;;;;;;5071989;28;20102;-78
2022/08/15 04:32:42;;;;;;;13.48;12.07;;;21.70;99.90;;;;;;5059876;28;20048;-78
2022/08/15 04:35:10;;;;;;;13.02;11.65;;;21.70;99.90;;;;;;5075784;28;20080;-78
2022/08/15 04:37:37;;;;;;;15.00;11.98;;;21.80;99.90;;;;;;5058956;28;20063;-79
2022/08/15 04:40:08;;;;;;;12.45;11.32;;;21.80;99.90;;;;;;5075905;28;20570;-79
2022/08/15 04:42:48;;;;;;;12.45;11.18;;;21.80;99.90;;;;;;5075499;28;20045;-79
2022/08/15 04:45:13;;;;;;;12.43;11.23;;;21.80;99.90;;;;;;5059092;28;20152;-79
2022/08/15 04:47:39;;;;;;;14.02;12.55;;;21.90;99.90;;;;;;5075717;28;20500;-79
2022/08/15 04:50:05;;;;;;;13.13;11.82;;;21.80;99.90;;;;;;5075437;28;20472;-78
2022/08/15 04:52:31;;;;;;;12.25;11.05;;;21.70;99.90;;;;;;5075704;28;20048;-79
2022/08/15 04:54:58;;;;;;;12.73;11.48;;;21.60;99.90;;;;;;5075592;28;20051;-79
2022/08/15 04:57:24;;;;;;;12.73;11.43;;;21.70;99.90;;;;;;5058978;28;20396;-74
2022/08/15 04:59:50;;;;;;;11.70;10.60;;;21.80;99.90;;;;;;5075140;28;20051;-74
2022/08/15 05:02:23;;;;;;;13.48;11.35;;;21.70;99.90;;;;;;5077112;28;20052;-74
2022/08/15 05:04:49;;;;;;;11.65;10.50;;;21.70;99.90;;;;;;5058050;28;20053;-74
2022/08/15 05:07:16;;;;;;;12.32;11.02;;;21.70;99.90;;;;;;5076670;28;20044;-74
2022/08/15 05:09:43;;;;;;;12.35;11.05;;;21.80;99.90;;;;;;5076184;28;20396;-74
2022/08/15 05:12:10;;;;;;;12.68;10.80;;;21.70;99.90;;;;;;5074856;28;20052;-74
2022/08/15 05:14:36;;;;;;;13.23;11.90;;;21.70;99.90;;;;;;5076029;28;20079;-74
2022/08/15 05:17:02;;;;;;;12.90;11.60;;;21.70;99.90;;;;;;5058878;28;20170;-74
2022/08/15 05:19:28;;;;;;;12.95;11.75;;;22.00;99.90;;;;;;5074798;28;20040;-74
2022/08/15 05:21:53;;;;;;;12.95;11.65;;;21.70;99.90;;;;;;5074787;28;20075;-74
2022/08/15 05:24:19;;;;;;;14.80;12.27;;;21.90;99.90;;;;;;5041349;28;20044;-75
2022/08/15 05:26:45;;;;;;;13.45;12.05;;;21.90;99.90;;;;;;5075753;28;20054;-74
2022/08/15 05:29:11;;;;;;;13.40;12.10;;;21.80;99.90;;;;;;5058184;28;20044;-74
2022/08/15 05:31:37;;;;;;;13.40;12.10;;;21.80;99.90;;;;;;5075513;28;20045;-74
2022/08/15 05:34:03;;;;;;;13.18;11.50;;;21.90;99.90;;;;;;5074810;28;20049;-74
2022/08/15 05:36:30;;;;;;;13.82;12.43;;;21.90;99.90;;;;;;5075467;28;20109;-74
2022/08/15 05:39:10;;;;;;;14.50;13.02;;;22.00;99.90;;;;;;5075587;28;20053;-74
2022/08/15 05:42:03;;;;;;;13.27;11.90;;;22.00;99.90;;;;;;5075283;28;20056;-75
2022/08/15 05:44:32;;;;;;;;;;;21.90;99.90;;;;;;5076087;28;20044;-74
2022/08/15 05:47:04;;;;;;;15.02;12.35;;;22.00;99.90;;;;;;5074101;28;19928;-74
2022/08/15 05:49:57;;;;;;;;;;;22.10;99.90;;;;;;5074996;28;20091;-74
2022/08/15 05:52:44;;;;;;;13.38;12.07;;;21.90;99.90;;;;;;5059326;28;19920;-75
2022/08/15 05:55:38;;;;;;;13.55;12.20;;;22.00;99.90;;;;;;5073975;28;20055;-74
2022/08/15 05:58:29;;;;;;;15.57;12.52;;;22.10;99.90;;;;;;5075146;28;20048;-74
2022/08/15 06:01:04;;;;;;;14.18;12.65;;;22.10;99.90;;;;;;5075378;28;20078;-75
2022/08/15 06:03:32;;;;;;;13.90;12.50;;;22.10;99.90;;;;;;5074907;28;20040;-74
2022/08/15 06:06:10;;;;;;;13.40;11.93;;;22.00;99.90;;;;;;5074677;28;20092;-74
2022/08/15 06:08:41;;;;;;;14.35;12.88;;;22.00;99.90;;;;;;5074940;28;20057;-74
2022/08/15 06:11:13;;;;;;;14.27;12.77;;;22.10;99.90;;;;;;5075767;28;20422;-74
2022/08/15 06:14:09;;;;;;;13.82;12.43;;;22.10;99.90;;;;;;5074808;28;20048;-74
2022/08/15 06:16:56;;;;;;;14.23;12.77;;;22.10;99.90;;;;;;5074310;28;20040;-74
2022/08/15 06:19:39;;;;;;;13.23;11.80;;;22.00;99.90;;;;;;5074606;28;20618;-74
2022/08/15 06:22:15;;;;;;;13.32;12.00;;;22.10;99.90;;;;;;5057867;28;20469;-74
2022/08/15 06:24:59;;;;;;;13.02;11.57;;;22.10;99.90;;;;;;5074518;28;20476;-74
2022/08/15 06:27:55;;;;;;;14.30;12.15;;;22.30;99.90;;;;;;5057759;28;20084;-74
2022/08/15 06:30:53;;;;;;;13.07;11.77;;;22.20;99.90;;;;;;5075330;28;20372;-74
2022/08/15 06:33:27;;;;;;;12.95;11.73;;;22.40;99.90;;;;;;5065771;28;20056;-74
2022/08/15 06:36:10;;;;;;;12.40;11.10;;;22.60;99.90;;;;;;5073683;28;20056;-74
2022/08/15 06:39:01;;;;;;;14.43;11.50;;;22.50;99.90;;;;;;5075031;28;20132;-75
2022/08/15 06:41:51;;;;;;;11.63;10.43;;;22.70;99.90;;;;;;5074374;28;20131;-76
2022/08/15 06:44:18;;;;;;;10.85;9.85;;;22.80;99.90;;;;;;5075085;28;20063;-75
2022/08/15 06:46:45;;;;;;;10.00;8.85;;;22.90;99.90;;;;;;5074148;28;20090;-74
2022/08/15 06:49:13;;;;;;;9.93;9.02;;;23.00;99.90;;;;;;5074870;28;20054;-75
2022/08/15 06:51:41;;;;;;;10.70;8.32;;;23.10;99.90;;;;;;5074205;28;20066;-74
2022/08/15 06:54:14;;;;;;;9.45;8.40;;;23.10;99.90;;;;;;5072979;28;20094;-75
2022/08/15 06:56:58;;;;;;;9.90;8.88;;;23.30;99.90;;;;;;5073902;28;20049;-74
2022/08/15 06:59:38;;;;;;;9.68;8.57;;;23.30;99.90;;;;;;5073969;28;20058;-75
2022/08/15 07:02:09;;;;;;;8.93;7.80;;;23.30;99.90;;;;;;5074352;28;20048;-74
2022/08/15 07:04:53;;;;;;;9.40;8.33;;;23.30;99.90;;;;;;5074421;28;20151;-74
2022/08/15 07:07:44;;;;;;;10.20;8.63;;;23.30;99.90;;;;;;5072211;28;20055;-75
2022/08/15 07:10:32;;;;;;;9.38;8.43;;;23.30;99.90;;;;;;5073187;28;20048;-74
2022/08/15 07:13:12;;;;;;;9.00;8.20;;;23.30;99.90;;;;;;5073841;28;20158;-74
2022/08/15 07:16:08;;;;;;;10.35;9.25;;;23.30;99.90;;;;;;5073163;28;20052;-73
2022/08/15 07:18:44;;;;;;;11.30;10.07;;;23.50;99.90;;;;;;5056828;28;20143;-74
2022/08/15 07:21:17;;;;;;;11.30;10.10;;;23.30;99.90;;;;;;5072550;28;20048;-75
2022/08/15 07:24:09;;;;;;;11.85;10.48;;;23.50;99.90;;;;;;5072527;28;20070;-74
2022/08/15 07:26:41;;;;;;;;;;;23.30;99.90;;;;;;5072763;28;20045;-75
2022/08/15 07:29:16;;;;;;;11.60;10.43;;;23.40;99.90;;;;;;5055598;28;19920;-75
2022/08/15 07:31:43;;;;;;;12.05;10.75;;;23.50;99.90;;;;;;5073877;28;20055;-75
2022/08/15 07:34:22;;;;;;;11.93;10.77;;;23.40;99.90;;;;;;5056167;28;20067;-74
2022/08/15 07:36:57;;;;;;;12.65;11.27;;;23.50;99.90;;;;;;5074244;28;20053;-75
2022/08/15 07:39:38;;;;;;;12.00;10.80;;;23.60;99.90;;;;;;5072568;28;20044;-74
2022/08/15 07:42:18;;;;;;;11.38;10.25;;;23.80;99.90;;;;;;5056778;28;20056;-75
2022/08/15 07:45:13;;;;;;;10.77;9.80;;;23.70;99.90;;;;;;5056675;28;20368;-76
2022/08/15 07:47:41;;;;;;;11.13;10.10;;;23.90;99.90;;;;;;5047825;28;20067;-77
2022/08/15 07:50:12;;;;;;;10.68;9.52;;;24.00;99.90;;;;;;5073509;28;20049;-75
2022/08/15 07:52:39;;;;;;;11.30;10.10;;;24.10;99.90;;;;;;5074033;28;20094;-76
2022/08/15 07:55:16;;;;;;;11.05;9.95;;;24.20;99.90;;;;;;5072290;28;20045;-76
2022/08/15 07:57:57;;;;;;;10.30;9.35;;;24.30;99.90;;;;;;5074067;28;20052;-77
2022/08/15 08:00:28;;;;;;;10.80;9.48;;;24.30;99.90;;;;;;5074080;28;20073;-80
2022/08/15 08:03:23;;;;;;;10.75;9.63;;;24.50;99.90;;;;;;5072325;28;20049;-77
2022/08/15 08:06:00;;;;;;;10.20;9.20;;;24.50;99.90;;;;;;5073098;28;20134;-78
2022/08/15 08:08:51;;;;;;;8.68;7.82;;;24.80;99.90;;;;;;5076644;28;20048;-77
2022/08/15 08:11:54;;;;;;;9.38;8.27;;;24.70;99.90;;;;;;5076783;28;20056;-79
2022/08/15 08:14:57;;;;;;;7.90;7.10;;;24.90;99.90;;;;;;5077535;28;20044;-78
2022/08/15 08:17:39;;;;;;;8.40;7.18;;;24.90;99.90;;;;;;5076314;28;20143;-76
2022/08/15 08:20:32;;;;;;;7.53;6.82;;;25.20;99.90;;;;;;5077437;28;20123;-77
2022/08/15 08:23:09;;;;;;;6.22;5.65;;;25.20;99.90;;;;;;5059714;28;20388;-78
2022/08/15 08:25:43;;;;;;;6.25;5.65;;;25.30;99.90;;;;;;5076228;28;20045;-77
2022/08/15 08:28:27;;;;;;;6.50;5.72;;;25.20;99.10;;;;;;5076858;28;20484;-75
2022/08/15 08:31:19;;;;;;;6.13;5.63;;;26.00;99.90;;;;;;5075955;28;20448;-72
2022/08/15 08:34:02;;;;;;;5.50;5.00;;;25.40;99.90;;;;;;5076778;28;20516;-72
2022/08/15 08:36:46;;;;;;;6.78;5.95;;;25.60;99.90;;;;;;5076522;28;20504;-72
2022/08/15 08:39:36;;;;;;;5.40;4.90;;;25.70;99.90;;;;;;5076690;28;20044;-72
2022/08/15 08:42:07;;;;;;;5.05;4.65;;;25.60;99.90;;;;;;5076974;28;20431;-73
2022/08/15 08:44:45;;;;;;;5.53;5.00;;;25.60;99.90;;;;;;5059664;28;20056;-72
2022/08/15 08:47:11;;;;;;;6.00;5.13;;;25.80;99.90;;;;;;5076538;28;20502;-73
2022/08/15 08:50:01;;;;;;;6.18;5.55;;;25.60;99.70;;;;;;5075761;28;20127;-73
2022/08/15 08:52:43;;;;;;;6.25;5.68;;;25.70;99.90;;;;;;5076815;28;20075;-72
2022/08/15 08:55:18;;;;;;;5.30;4.80;;;25.80;99.20;;;;;;5076165;28;20580;-73
2022/08/15 08:57:50;;;;;;;5.95;5.25;;;25.80;99.50;;;;;;5076370;28;20052;-72
2022/08/15 09:00:18;;;;;;;5.18;4.60;;;26.00;97.80;;;;;;5076266;28;20105;-73
2022/08/15 09:02:52;;;;;;;4.65;4.25;;;26.20;98.20;;;;;;5076283;28;20052;-73
2022/08/15 09:05:39;;;;;;;5.07;4.57;;;26.10;98.70;;;;;;5076202;28;20491;-73
2022/08/15 09:08:24;;;;;;;4.80;4.40;;;26.10;99.70;;;;;;5058893;28;20357;-73
2022/08/15 09:10:55;;;;;;;4.95;4.55;;;26.10;99.20;;;;;;5076236;28;20140;-72
2022/08/15 09:13:34;;;;;;;3.97;3.67;;;26.20;99.30;;;;;;5075495;28;20045;-71
2022/08/15 09:16:10;;;;;;;6.35;4.30;;;26.20;99.30;;;;;;5076265;28;20094;-72
2022/08/15 09:18:47;;;;;;;4.40;4.00;;;26.10;99.90;;;;;;5073717;28;20060;-72
2022/08/15 09:21:13;;;;;;;4.38;3.97;;;26.20;98.80;;;;;;5074335;28;20054;-72
2022/08/15 09:23:40;;;;;;;5.93;4.25;;;26.40;99.90;;;;;;5074670;28;20105;-72
2022/08/15 09:26:13;;;;;;;4.65;4.25;;;26.30;93.80;;;;;;5074455;28;20442;-72
2022/08/15 09:28:42;;;;;;;4.40;4.00;;;26.30;94.00;;;;;;5074764;28;20058;-71
2022/08/15 09:31:16;;;;;;;4.13;3.63;;;26.40;93.50;;;;;;5057085;28;20070;-72
2022/08/15 09:34:07;;;;;;;3.63;3.33;;;26.40;93.40;;;;;;5074116;28;20040;-71
2022/08/15 09:36:51;;;;;;;4.20;3.70;;;26.50;93.40;;;;;;5074797;28;20071;-72
2022/08/15 09:39:36;;;;;;;4.82;3.95;;;26.50;93.20;;;;;;5075034;28;20053;-71
2022/08/15 09:42:02;;;;;;;4.38;3.90;;;26.60;93.30;;;;;;5057704;28;20059;-72
2022/08/15 09:44:45;;;;;;;4.22;3.50;;;26.70;93.10;;;;;;5074370;28;20373;-73
2022/08/15 09:47:46;;;;;;;4.15;3.70;;;26.80;92.80;;;;;;5074445;28;20473;-73
2022/08/15 09:50:37;;;;;;;4.10;3.70;;;26.80;92.50;;;;;;5051454;28;20048;-73
2022/08/15 09:53:21;;;;;;;4.05;3.35;;;26.90;92.00;;;;;;5056941;28;20527;-72
2022/08/15 09:55:49;;;;;;;4.00;3.60;;;27.10;91.50;;;;;;5073836;28;20357;-73
2022/08/15 09:58:25;;;;;;;4.93;4.38;;;27.20;91.20;;;;;;5074157;28;20045;-74
2022/08/15 10:01:12;;;;;;;3.95;3.60;;;27.30;91.30;;;;;;5073247;28;20044;-73
2022/08/15 10:03:44;;;;;;;4.47;4.07;;;27.40;91.30;;;;;;5073589;28;20095;-73
2022/08/15 10:06:32;;;;;;;4.28;3.88;;;27.50;91.10;;;;;;5072763;28;20052;-73
2022/08/15 10:09:03;;;;;;;4.07;3.75;;;27.60;91.00;;;;;;5074331;28;20044;-73
2022/08/15 10:11:54;;;;;;;5.78;3.80;;;27.70;90.00;;;;;;5073746;28;20049;-73
2022/08/15 10:14:20;;;;;;;4.40;3.90;;;27.80;90.30;;;;;;5073543;28;20354;-73
2022/08/15 10:16:55;;;;;;;5.20;3.65;;;27.80;89.70;;;;;;5073445;28;20098;-73
2022/08/15 10:19:38;;;;;;;4.47;3.58;;;27.90;88.90;;;;;;5074465;28;20045;-73
2022/08/15 10:22:22;;;;;;;4.10;3.80;;;27.90;88.80;;;;;;5073748;28;20044;-73
2022/08/15 10:25:22;;;;;;;4.63;3.70;;;28.00;88.10;;;;;;5056505;28;20127;-78
2022/08/15 10:28:18;;;;;;;5.10;3.60;;;28.00;87.90;;;;;;5072964;28;20492;-76
2022/08/15 10:31:17;;;;;;;6.05;3.83;;;28.00;87.40;;;;;;5072700;28;20098;-76
2022/08/15 10:33:48;;;;;;;4.15;3.80;;;28.10;87.40;;;;;;5072635;28;20110;-77
2022/08/15 10:36:13;;;;;;;4.57;3.78;;;28.10;87.30;;;;;;5073059;28;20048;-78
2022/08/15 10:39:22;;;;;;;4.10;3.78;;;28.10;86.30;;;;;;5072656;28;20151;-79
2022/08/15 10:42:17;;;;;;;4.40;4.00;;;27.90;85.80;;;;;;5042487;28;20060;-79
2022/08/15 10:45:00;;;;;;;5.13;4.20;;;28.10;86.00;;;;;;5072120;28;20181;-77
2022/08/15 10:47:32;;;;;;;4.00;3.70;;;28.00;85.70;;;;;;5072513;28;20466;-81
2022/08/15 10:50:02;;;;;;;5.30;3.78;;;28.00;85.90;;;;;;5072546;28;20437;-77
2022/08/15 10:52:33;;;;;;;3.88;3.30;;;28.00;84.60;;;;;;5056033;28;20044;-81
2022/08/15 10:55:05;;;;;;;4.37;3.70;;;28.10;84.30;;;;;;5056241;28;20131;-78
2022/08/15 10:57:44;;;;;;;4.60;3.30;;;28.00;84.50;;;;;;5072699;28;20340;-79
2022/08/15 11:00:37;;;;;;;4.00;3.60;;;28.00;84.50;;;;;;5073161;28;20040;-81
2022/08/15 11:03:06;;;;;;;3.90;3.60;;;28.00;84.30;;;;;;5055482;28;20448;-79
2022/08/15 11:05:33;;;;;;;4.25;3.83;;;28.00;84.60;;;;;;5054689;28;20098;-78
2022/08/15 11:07:59;;;;;;;3.38;3.00;;;28.10;84.60;;;;;;5055171;28;20105;-77
2022/08/15 11:10:30;;;;;;;4.13;3.47;;;28.10;83.80;;;;;;5055109;28;20048;-76
2022/08/15 11:13:05;;;;;;;4.90;3.40;;;28.10;84.10;;;;;;5072163;28;20495;-80
2022/08/15 11:15:45;;;;;;;3.75;3.45;;;28.20;83.40;;;;;;5073439;28;20098;-80
2022/08/15 11:18:11;;;;;;;3.30;3.00;;;28.30;82.90;;;;;;5072985;28;20049;-81
2022/08/15 11:20:49;;;;;;;4.50;4.20;;;28.40;83.10;;;;;;5055515;28;20063;-82
2022/08/15 11:23:31;;;;;;;4.90;3.17;;;28.40;83.30;;;;;;5071674;28;20052;-81
2022/08/15 11:25:58;;;;;;;6.30;5.35;;;28.40;83.80;;;;;;5055089;28;20037;-80
2022/08/15 11:28:25;;;;;;;9.82;5.50;;;28.40;84.60;;;;;;5056004;28;20488;-80
2022/08/15 11:31:15;;;;;;;6.90;6.20;;;28.40;86.50;;;;;;5072389;28;20483;-78
2022/08/15 11:33:44;;;;;;;7.68;6.10;;;28.30;86.90;;;;;;5073027;28;20040;-80
2022/08/15 11:36:20;;;;;;;7.07;5.70;;;28.30;87.40;;;;;;5072540;28;20501;-78
2022/08/15 11:38:53;;;;;;;7.03;6.00;;;28.20;87.30;;;;;;5072467;28;20048;-79
2022/08/15 11:41:36;;;;;;;6.15;5.65;;;28.20;87.30;;;;;;5071871;28;20040;-80
2022/08/15 11:44:06;;;;;;;6.90;6.13;;;28.10;88.60;;;;;;5073140;28;20202;-80
2022/08/15 11:46:32;;;;;;;6.40;5.75;;;28.10;89.00;;;;;;5073393;28;20044;-80
2022/08/15 11:49:11;;;;;;;6.90;6.13;;;28.00;88.80;;;;;;5055959;28;20049;-81
2022/08/15 11:51:46;;;;;;;6.63;6.03;;;28.00;88.70;;;;;;5072723;28;20186;-79
2022/08/15 11:54:11;;;;;;;6.13;5.45;;;28.00;88.30;;;;;;5055684;28;20084;-80
2022/08/15 11:57:07;;;;;;;6.60;5.90;;;27.90;89.10;;;;;;5072357;28;20454;-80
2022/08/15 11:59:39;;;;;;;10.75;6.93;;;27.90;90.00;;;;;;5071186;28;20508;-80
2022/08/15 12:02:20;;;;;;;9.75;6.93;;;27.90;89.90;;;;;;5072126;28;20052;-80
2022/08/15 12:04:48;;;;;;;8.00;7.20;;;27.90;90.20;;;;;;5055282;28;20102;-80
2022/08/15 12:07:28;;;;;;;7.68;6.68;;;27.90;89.90;;;;;;5072301;28;20044;-78
2022/08/15 12:09:57;;;;;;;8.90;7.35;;;27.80;90.30;;;;;;5055686;28;20048;-79
2022/08/15 12:12:28;;;;;;;9.57;7.40;;;27.80;90.70;;;;;;5072215;28;20056;-80
2022/08/15 12:15:06;;;;;;;8.70;7.90;;;27.80;90.80;;;;;;5055604;28;20048;-79
2022/08/15 12:17:32;;;;;;;9.88;8.93;;;27.80;90.30;;;;;;5072448;28;20053;-81
2022/08/15 12:19:58;;;;;;;11.30;8.85;;;27.70;90.10;;;;;;5072073;28;20093;-80
2022/08/15 12:22:38;;;;;;;10.02;8.48;;;27.70;90.10;;;;;;5071859;28;20060;-79
2022/08/15 12:25:06;;;;;;;9.77;8.70;;;27.60;90.10;;;;;;5055365;28;20197;-78
2022/08/15 12:27:34;;;;;;;13.57;9.75;;;27.60;90.10;;;;;;5071425;28;20041;-79
2022/08/15 12:30:00;;;;;;;11.02;9.90;;;27.60;90.30;;;;;;5056481;28;20043;-77
2022/08/15 12:32:26;;;;;;;14.05;10.18;;;27.50;90.30;;;;;;5055401;28;20059;-77
2022/08/15 12:34:55;;;;;;;9.20;8.40;;;27.50;90.30;;;;;;5072100;28;20040;-78
2022/08/15 12:37:25;;;;;;;11.40;9.13;;;27.50;90.40;;;;;;5072077;28;20087;-78
2022/08/15 12:39:53;;;;;;;12.75;9.05;;;27.50;90.40;;;;;;5072030;28;20040;-78
2022/08/15 12:42:28;;;;;;;11.00;9.90;;;27.40;90.30;;;;;;5055606;28;20044;-76
2022/08/15 12:44:57;;;;;;;11.45;10.25;;;27.40;90.30;;;;;;5071986;28;20052;-79
2022/08/15 12:47:26;;;;;;;11.13;9.98;;;27.30;90.30;;;;;;5072867;28;20106;-79
2022/08/15 12:49:52;;;;;;;13.70;9.50;;;27.30;90.50;;;;;;5072782;28;20084;-82
2022/08/15 12:52:19;;;;;;;11.30;9.48;;;27.30;90.50;;;;;;5056918;28;20449;-79
2022/08/15 12:54:46;;;;;;;12.23;10.98;;;27.30;90.70;;;;;;5075043;28;20554;-78
2022/08/15 12:57:12;;;;;;;14.43;9.50;;;27.30;90.50;;;;;;5075395;28;20059;-79
2022/08/15 12:59:38;;;;;;;9.93;8.90;;;27.40;90.70;;;;;;5059537;28;20044;-79
2022/08/15 13:02:05;;;;;;;12.68;9.82;;;27.40;90.90;;;;;;5058590;28;20052;-79
2022/08/15 13:04:31;;;;;;;12.10;9.38;;;27.40;90.80;;;;;;5076227;28;20061;-78
2022/08/15 13:06:59;;;;;;;13.57;9.70;;;27.50;91.00;;;;;;5042646;28;20386;-79
2022/08/15 13:09:28;;;;;;;10.80;9.77;;;27.50;90.90;;;;;;5058490;28;20084;-78
2022/08/15 13:11:54;;;;;;;9.98;8.98;;;27.50;90.60;;;;;;5075943;28;20082;-79
2022/08/15 13:14:20;;;;;;;12.18;9.68;;;27.50;90.50;;;;;;5058334;28;20052;-78